Terminal Aerodrome Forecast
Issued by NWS Milwaukee/Sullivan, WI

Home | Current Version | Previous Version | Text Only | Print | Product List | Glossary On
Versions: 1 2 3 4 5 6 7 8 9 10 11 12 13 14 15
000
FTUS43 KMKX 182320
TAFMSN
TAF
KMSN 182320Z 1900/1924 20011KT P6SM SKC WS020/22040KT
     FM190400 23008KT P6SM FEW250 WS020/25035KT
     FM190600 27006KT P6SM FEW250
     FM191100 00000KT P6SM FEW250
     FM192200 19007KT P6SM SKC=

USA.gov is the U.S. government's official web portal to all federal, state and local government web resources and services.